sensor_id;sensor_type;location;lat;lon;timestamp;pressure;altitude;pressure_sealevel;temperature;humidity
63306;BME280;50735;52.060;1.248;2023-02-11T00:00:42;103174.39;;;4.54;63.30
63306;BME280;50735;52.060;1.248;2023-02-11T00:03:09;103172.94;;;4.56;63.14
63306;BME280;50735;52.060;1.248;2023-02-11T00:05:35;103174.89;;;4.32;62.63
63306;BME280;50735;52.060;1.248;2023-02-11T00:08:02;103176.12;;;4.31;62.89
63306;BME280;50735;52.060;1.248;2023-02-11T00:10:29;103174.38;;;4.36;62.73
63306;BME280;50735;52.060;1.248;2023-02-11T00:12:56;103176.74;;;4.79;62.74
63306;BME280;50735;52.060;1.248;2023-02-11T00:15:23;103174.98;;;4.37;62.66
63306;BME280;50735;52.060;1.248;2023-02-11T00:17:50;103172.05;;;4.41;63.42
63306;BME280;50735;52.060;1.248;2023-02-11T00:20:18;103174.35;;;4.39;62.66
63306;BME280;50735;52.060;1.248;2023-02-11T00:22:45;103174.01;;;4.83;61.94
63306;BME280;50735;52.060;1.248;2023-02-11T00:25:12;103175.21;;;4.84;61.05
63306;BME280;50735;52.060;1.248;2023-02-11T00:27:39;103176.89;;;4.91;60.78
63306;BME280;50735;52.060;1.248;2023-02-11T00:30:07;103177.52;;;5.17;60.74
63306;BME280;50735;52.060;1.248;2023-02-11T00:32:34;103171.87;;;5.37;60.14
63306;BME280;50735;52.060;1.248;2023-02-11T00:35:00;103173.04;;;5.33;59.81
63306;BME280;50735;52.060;1.248;2023-02-11T00:37:27;103174.59;;;5.41;59.59
63306;BME280;50735;52.060;1.248;2023-02-11T00:39:54;103178.75;;;5.01;61.27
63306;BME280;50735;52.060;1.248;2023-02-11T00:42:21;103177.99;;;5.37;60.42
63306;BME280;50735;52.060;1.248;2023-02-11T00:44:48;103183.36;;;5.13;60.71
63306;BME280;50735;52.060;1.248;2023-02-11T00:47:15;103178.02;;;5.31;59.85
63306;BME280;50735;52.060;1.248;2023-02-11T00:49:42;103179.43;;;5.94;59.24
63306;BME280;50735;52.060;1.248;2023-02-11T00:52:09;103176.60;;;5.85;58.76
63306;BME280;50735;52.060;1.248;2023-02-11T00:54:35;103177.67;;;5.66;58.74
63306;BME280;50735;52.060;1.248;2023-02-11T00:57:03;103175.22;;;5.71;58.48
63306;BME280;50735;52.060;1.248;2023-02-11T00:59:29;103173.82;;;5.65;59.00
63306;BME280;50735;52.060;1.248;2023-02-11T01:01:56;103172.58;;;5.58;58.78
63306;BME280;50735;52.060;1.248;2023-02-11T01:04:23;103171.73;;;5.90;58.53
63306;BME280;50735;52.060;1.248;2023-02-11T01:06:49;103171.25;;;5.74;58.43
63306;BME280;50735;52.060;1.248;2023-02-11T01:09:17;103178.41;;;5.80;58.10
63306;BME280;50735;52.060;1.248;2023-02-11T01:11:44;103180.27;;;6.02;57.86
63306;BME280;50735;52.060;1.248;2023-02-11T01:14:11;103183.46;;;5.88;57.73
63306;BME280;50735;52.060;1.248;2023-02-11T01:16:37;103183.16;;;5.95;57.44
63306;BME280;50735;52.060;1.248;2023-02-11T01:19:05;103180.72;;;5.95;57.44
63306;BME280;50735;52.060;1.248;2023-02-11T01:21:32;103180.30;;;5.95;57.22
63306;BME280;50735;52.060;1.248;2023-02-11T01:23:58;103178.91;;;5.74;57.05
63306;BME280;50735;52.060;1.248;2023-02-11T01:26:26;103175.00;;;5.88;57.30
63306;BME280;50735;52.060;1.248;2023-02-11T01:28:52;103173.72;;;5.63;57.96
63306;BME280;50735;52.060;1.248;2023-02-11T01:31:19;103176.67;;;5.59;57.92
63306;BME280;50735;52.060;1.248;2023-02-11T01:33:46;103174.53;;;5.64;57.54
63306;BME280;50735;52.060;1.248;2023-02-11T01:36:12;103173.40;;;5.73;57.24
63306;BME280;50735;52.060;1.248;2023-02-11T01:38:39;103171.90;;;5.80;56.95
63306;BME280;50735;52.060;1.248;2023-02-11T01:41:09;103169.65;;;5.71;57.01
63306;BME280;50735;52.060;1.248;2023-02-11T01:43:39;103168.86;;;5.69;56.96
63306;BME280;50735;52.060;1.248;2023-02-11T01:46:16;103169.73;;;5.73;56.85
63306;BME280;50735;52.060;1.248;2023-02-11T01:48:48;103167.74;;;5.76;56.63
63306;BME280;50735;52.060;1.248;2023-02-11T01:51:19;103165.22;;;5.78;56.46
63306;BME280;50735;52.060;1.248;2023-02-11T01:53:47;103172.12;;;5.79;56.37
63306;BME280;50735;52.060;1.248;2023-02-11T01:56:16;103171.20;;;5.75;56.11
63306;BME280;50735;52.060;1.248;2023-02-11T01:58:44;103170.59;;;5.72;56.01
63306;BME280;50735;52.060;1.248;2023-02-11T02:01:18;103172.58;;;5.70;55.98
63306;BME280;50735;52.060;1.248;2023-02-11T02:03:47;103175.75;;;5.68;55.91
63306;BME280;50735;52.060;1.248;2023-02-11T02:06:19;103173.18;;;5.67;55.64
63306;BME280;50735;52.060;1.248;2023-02-11T02:08:53;103170.98;;;5.58;56.11
63306;BME280;50735;52.060;1.248;2023-02-11T02:11:22;103167.43;;;5.26;57.33
63306;BME280;50735;52.060;1.248;2023-02-11T02:13:49;103163.30;;;5.36;57.56
63306;BME280;50735;52.060;1.248;2023-02-11T02:16:18;103161.09;;;5.03;58.13
63306;BME280;50735;52.060;1.248;2023-02-11T02:18:51;103165.48;;;5.01;57.73
63306;BME280;50735;52.060;1.248;2023-02-11T02:21:34;103167.93;;;4.99;58.11
63306;BME280;50735;52.060;1.248;2023-02-11T02:24:24;103171.82;;;5.25;57.62
63306;BME280;50735;52.060;1.248;2023-02-11T02:27:37;103169.67;;;5.15;57.12
63306;BME280;50735;52.060;1.248;2023-02-11T02:30:32;103171.85;;;5.25;56.83
63306;BME280;50735;52.060;1.248;2023-02-11T02:33:17;103174.10;;;5.35;56.63
63306;BME280;50735;52.060;1.248;2023-02-11T02:35:54;103173.87;;;5.37;56.72
63306;BME280;50735;52.060;1.248;2023-02-11T02:38:29;103168.52;;;5.29;57.06
63306;BME280;50735;52.060;1.248;2023-02-11T02:41:00;103160.72;;;5.35;57.34
63306;BME280;50735;52.060;1.248;2023-02-11T02:43:29;103155.47;;;4.88;58.81
63306;BME280;50735;52.060;1.248;2023-02-11T02:46:10;103150.14;;;5.00;58.33
63306;BME280;50735;52.060;1.248;2023-02-11T02:48:37;103151.32;;;5.01;58.00
63306;BME280;50735;52.060;1.248;2023-02-11T02:51:12;103157.41;;;5.08;57.63
63306;BME280;50735;52.060;1.248;2023-02-11T02:53:49;103163.61;;;5.18;57.34
63306;BME280;50735;52.060;1.248;2023-02-11T02:56:25;103164.95;;;5.29;57.24
63306;BME280;50735;52.060;1.248;2023-02-11T02:59:09;103157.96;;;5.41;57.09
63306;BME280;50735;52.060;1.248;2023-02-11T03:01:46;103155.95;;;5.28;56.85
63306;BME280;50735;52.060;1.248;2023-02-11T03:04:21;103149.10;;;5.51;56.73
63306;BME280;50735;52.060;1.248;2023-02-11T03:06:54;103148.15;;;5.28;56.96
63306;BME280;50735;52.060;1.248;2023-02-11T03:09:29;103146.47;;;5.24;57.25
63306;BME280;50735;52.060;1.248;2023-02-11T03:11:59;103146.62;;;5.08;57.51
63306;BME280;50735;52.060;1.248;2023-02-11T03:14:28;103153.03;;;5.07;57.47
63306;BME280;50735;52.060;1.248;2023-02-11T03:16:57;103159.68;;;5.04;58.53
63306;BME280;50735;52.060;1.248;2023-02-11T03:19:28;103157.06;;;5.48;58.67
63306;BME280;50735;52.060;1.248;2023-02-11T03:21:56;103157.99;;;5.19;58.03
63306;BME280;50735;52.060;1.248;2023-02-11T03:24:28;103158.26;;;5.67;57.65
63306;BME280;50735;52.060;1.248;2023-02-11T03:26:58;103157.72;;;5.11;57.58
63306;BME280;50735;52.060;1.248;2023-02-11T03:29:32;103157.63;;;5.39;57.32
63306;BME280;50735;52.060;1.248;2023-02-11T03:32:05;103157.30;;;5.31;57.15
63306;BME280;50735;52.060;1.248;2023-02-11T03:34:41;103154.15;;;5.22;57.40
63306;BME280;50735;52.060;1.248;2023-02-11T03:37:13;103152.04;;;5.33;57.55
63306;BME280;50735;52.060;1.248;2023-02-11T03:39:45;103148.19;;;5.10;57.29
63306;BME280;50735;52.060;1.248;2023-02-11T03:42:15;103147.08;;;4.95;57.95
63306;BME280;50735;52.060;1.248;2023-02-11T03:44:47;103148.90;;;4.92;57.85
63306;BME280;50735;52.060;1.248;2023-02-11T03:47:18;103151.73;;;4.83;58.23
63306;BME280;50735;52.060;1.248;2023-02-11T03:49:48;103150.48;;;5.09;58.93
63306;BME280;50735;52.060;1.248;2023-02-11T03:52:18;103149.99;;;5.15;58.43
63306;BME280;50735;52.060;1.248;2023-02-11T03:54:49;103152.47;;;4.82;58.28
63306;BME280;50735;52.060;1.248;2023-02-11T03:57:18;103151.84;;;5.29;58.05
63306;BME280;50735;52.060;1.248;2023-02-11T03:59:49;103148.80;;;4.84;58.44
63306;BME280;50735;52.060;1.248;2023-02-11T04:02:16;103143.83;;;5.06;57.97
63306;BME280;50735;52.060;1.248;2023-02-11T04:04:44;103139.99;;;5.33;58.13
63306;BME280;50735;52.060;1.248;2023-02-11T04:07:11;103136.88;;;5.06;58.08
63306;BME280;50735;52.060;1.248;2023-02-11T04:09:37;103136.22;;;4.88;57.86
63306;BME280;50735;52.060;1.248;2023-02-11T04:12:05;103139.56;;;5.28;58.02
63306;BME280;50735;52.060;1.248;2023-02-11T04:14:32;103145.59;;;5.26;58.41
63306;BME280;50735;52.060;1.248;2023-02-11T04:16:59;103145.71;;;5.50;58.05
63306;BME280;50735;52.060;1.248;2023-02-11T04:19:26;103148.19;;;5.43;57.86
63306;BME280;50735;52.060;1.248;2023-02-11T04:21:53;103148.62;;;5.32;57.66
63306;BME280;50735;52.060;1.248;2023-02-11T04:24:19;103149.13;;;5.16;57.53
63306;BME280;50735;52.060;1.248;2023-02-11T04:26:46;103154.49;;;5.41;57.39
63306;BME280;50735;52.060;1.248;2023-02-11T04:29:13;103156.82;;;5.67;57.20
63306;BME280;50735;52.060;1.248;2023-02-11T04:31:40;103157.71;;;5.46;57.12
63306;BME280;50735;52.060;1.248;2023-02-11T04:34:07;103160.68;;;5.69;57.17
63306;BME280;50735;52.060;1.248;2023-02-11T04:36:34;103164.63;;;5.34;57.10
63306;BME280;50735;52.060;1.248;2023-02-11T04:39:01;103168.24;;;5.50;56.99
63306;BME280;50735;52.060;1.248;2023-02-11T04:41:27;103168.55;;;5.74;56.93
63306;BME280;50735;52.060;1.248;2023-02-11T04:43:55;103168.28;;;5.56;56.98
63306;BME280;50735;52.060;1.248;2023-02-11T04:46:22;103164.39;;;5.54;56.81
63306;BME280;50735;52.060;1.248;2023-02-11T04:48:49;103164.00;;;5.34;57.29
63306;BME280;50735;52.060;1.248;2023-02-11T04:51:16;103164.42;;;5.25;57.20
63306;BME280;50735;52.060;1.248;2023-02-11T04:53:43;103162.24;;;5.16;57.41
63306;BME280;50735;52.060;1.248;2023-02-11T04:56:10;103164.94;;;5.19;57.80
63306;BME280;50735;52.060;1.248;2023-02-11T04:58:37;103169.29;;;5.26;58.11
63306;BME280;50735;52.060;1.248;2023-02-11T05:01:05;103175.05;;;4.92;58.84
63306;BME280;50735;52.060;1.248;2023-02-11T05:03:32;103171.76;;;4.93;58.67
63306;BME280;50735;52.060;1.248;2023-02-11T05:05:59;103174.57;;;5.19;58.76
63306;BME280;50735;52.060;1.248;2023-02-11T05:08:26;103175.77;;;4.88;59.29
63306;BME280;50735;52.060;1.248;2023-02-11T05:10:54;103177.63;;;5.23;58.78
63306;BME280;50735;52.060;1.248;2023-02-11T05:13:21;103175.49;;;4.89;58.87
63306;BME280;50735;52.060;1.248;2023-02-11T05:15:48;103174.94;;;4.85;59.19
63306;BME280;50735;52.060;1.248;2023-02-11T05:18:15;103171.51;;;4.77;60.06
63306;BME280;50735;52.060;1.248;2023-02-11T05:20:43;103173.64;;;4.86;59.79
63306;BME280;50735;52.060;1.248;2023-02-11T05:23:11;103176.93;;;4.83;60.55
63306;BME280;50735;52.060;1.248;2023-02-11T05:25:38;103176.62;;;4.61;60.64
63306;BME280;50735;52.060;1.248;2023-02-11T05:28:05;103173.72;;;4.66;60.93
63306;BME280;50735;52.060;1.248;2023-02-11T05:30:32;103168.76;;;4.74;61.47
63306;BME280;50735;52.060;1.248;2023-02-11T05:32:59;103165.05;;;4.31;62.44
63306;BME280;50735;52.060;1.248;2023-02-11T05:35:25;103163.13;;;4.17;62.90
63306;BME280;50735;52.060;1.248;2023-02-11T05:37:52;103165.54;;;3.91;63.82
63306;BME280;50735;52.060;1.248;2023-02-11T05:40:20;103161.32;;;4.01;64.20
63306;BME280;50735;52.060;1.248;2023-02-11T05:42:46;103163.19;;;4.15;63.75
63306;BME280;50735;52.060;1.248;2023-02-11T05:45:13;103164.37;;;3.97;64.52
63306;BME280;50735;52.060;1.248;2023-02-11T05:47:40;103161.49;;;3.99;63.88
63306;BME280;50735;52.060;1.248;2023-02-11T05:50:08;103164.81;;;3.99;63.92
63306;BME280;50735;52.060;1.248;2023-02-11T05:52:35;103166.63;;;4.13;64.28
63306;BME280;50735;52.060;1.248;2023-02-11T05:55:02;103167.61;;;4.20;64.62
63306;BME280;50735;52.060;1.248;2023-02-11T05:57:29;103165.44;;;4.27;63.89
63306;BME280;50735;52.060;1.248;2023-02-11T05:59:55;103167.85;;;4.14;64.66
63306;BME280;50735;52.060;1.248;2023-02-11T06:02:22;103170.55;;;4.19;64.56
63306;BME280;50735;52.060;1.248;2023-02-11T06:04:49;103166.01;;;4.01;65.28
63306;BME280;50735;52.060;1.248;2023-02-11T06:07:15;103166.37;;;3.85;65.26
63306;BME280;50735;52.060;1.248;2023-02-11T06:09:42;103175.55;;;4.05;65.39
63306;BME280;50735;52.060;1.248;2023-02-11T06:12:09;103178.32;;;4.04;65.37
63306;BME280;50735;52.060;1.248;2023-02-11T06:14:35;103178.83;;;4.32;64.38
63306;BME280;50735;52.060;1.248;2023-02-11T06:17:03;103180.85;;;4.14;64.37
63306;BME280;50735;52.060;1.248;2023-02-11T06:19:30;103184.89;;;4.51;63.97
63306;BME280;50735;52.060;1.248;2023-02-11T06:21:57;103183.00;;;4.64;63.59
63306;BME280;50735;52.060;1.248;2023-02-11T06:24:23;103181.49;;;4.68;63.85
63306;BME280;50735;52.060;1.248;2023-02-11T06:26:50;103185.29;;;4.55;63.30
63306;BME280;50735;52.060;1.248;2023-02-11T06:29:17;103187.81;;;4.76;62.67
63306;BME280;50735;52.060;1.248;2023-02-11T06:31:44;103190.66;;;5.08;62.69
63306;BME280;50735;52.060;1.248;2023-02-11T06:34:11;103188.19;;;4.71;62.59
63306;BME280;50735;52.060;1.248;2023-02-11T06:36:39;103184.12;;;4.68;62.69
63306;BME280;50735;52.060;1.248;2023-02-11T06:39:06;103181.38;;;4.79;63.12
63306;BME280;50735;52.060;1.248;2023-02-11T06:41:33;103184.64;;;5.11;62.62
63306;BME280;50735;52.060;1.248;2023-02-11T06:43:59;103190.29;;;4.83;62.37
63306;BME280;50735;52.060;1.248;2023-02-11T06:46:26;103188.47;;;4.97;62.60
63306;BME280;50735;52.060;1.248;2023-02-11T06:48:53;103191.56;;;4.86;63.20
63306;BME280;50735;52.060;1.248;2023-02-11T06:51:21;103194.05;;;4.77;63.14
63306;BME280;50735;52.060;1.248;2023-02-11T06:53:48;103194.79;;;5.23;62.02
63306;BME280;50735;52.060;1.248;2023-02-11T06:56:17;103204.22;;;5.28;61.38
63306;BME280;50735;52.060;1.248;2023-02-11T06:58:44;103206.96;;;5.45;60.94
63306;BME280;50735;52.060;1.248;2023-02-11T07:01:13;103204.88;;;5.50;60.87
63306;BME280;50735;52.060;1.248;2023-02-11T07:03:42;103202.75;;;5.55;60.68
63306;BME280;50735;52.060;1.248;2023-02-11T07:06:12;103205.54;;;5.86;60.44
63306;BME280;50735;52.060;1.248;2023-02-11T07:08:40;103210.24;;;5.97;60.15
63306;BME280;50735;52.060;1.248;2023-02-11T07:11:10;103213.85;;;5.83;59.91
63306;BME280;50735;52.060;1.248;2023-02-11T07:13:37;103219.04;;;6.13;59.80
63306;BME280;50735;52.060;1.248;2023-02-11T07:16:05;103223.34;;;5.84;59.70
63306;BME280;50735;52.060;1.248;2023-02-11T07:18:32;103221.71;;;6.17;59.49
63306;BME280;50735;52.060;1.248;2023-02-11T07:21:03;103221.26;;;6.43;59.31
63306;BME280;50735;52.060;1.248;2023-02-11T07:23:30;103219.39;;;6.29;59.07
63306;BME280;50735;52.060;1.248;2023-02-11T07:25:57;103221.48;;;6.31;59.00
63306;BME280;50735;52.060;1.248;2023-02-11T07:28:24;103225.75;;;6.37;58.90
63306;BME280;50735;52.060;1.248;2023-02-11T07:30:50;103230.25;;;6.42;58.79
63306;BME280;50735;52.060;1.248;2023-02-11T07:33:17;103232.80;;;6.45;58.72
63306;BME280;50735;52.060;1.248;2023-02-11T07:35:44;103228.83;;;6.88;58.57
63306;BME280;50735;52.060;1.248;2023-02-11T07:38:11;103225.16;;;6.49;58.50
63306;BME280;50735;52.060;1.248;2023-02-11T07:40:37;103227.55;;;6.44;58.82
63306;BME280;50735;52.060;1.248;2023-02-11T07:43:04;103230.38;;;6.40;58.77
63306;BME280;50735;52.060;1.248;2023-02-11T07:45:31;103233.28;;;6.42;58.85
63306;BME280;50735;52.060;1.248;2023-02-11T07:47:57;103231.61;;;6.29;59.39
63306;BME280;50735;52.060;1.248;2023-02-11T07:50:24;103234.96;;;5.97;60.91
63306;BME280;50735;52.060;1.248;2023-02-11T07:52:51;103235.25;;;6.05;60.72
63306;BME280;50735;52.060;1.248;2023-02-11T07:55:18;103234.21;;;5.93;60.07
63306;BME280;50735;52.060;1.248;2023-02-11T07:57:45;103239.80;;;6.35;59.84
63306;BME280;50735;52.060;1.248;2023-02-11T08:00:13;103239.33;;;6.50;59.39
63306;BME280;50735;52.060;1.248;2023-02-11T08:02:40;103242.65;;;6.54;59.27
63306;BME280;50735;52.060;1.248;2023-02-11T08:05:07;103247.91;;;6.54;59.20
63306;BME280;50735;52.060;1.248;2023-02-11T08:07:34;103249.15;;;6.33;59.31
63306;BME280;50735;52.060;1.248;2023-02-11T08:10:01;103252.97;;;6.58;59.30
63306;BME280;50735;52.060;1.248;2023-02-11T08:12:29;103252.67;;;6.45;59.67
63306;BME280;50735;52.060;1.248;2023-02-11T08:14:56;103256.57;;;6.24;59.86
63306;BME280;50735;52.060;1.248;2023-02-11T08:17:23;103255.77;;;6.24;59.75
63306;BME280;50735;52.060;1.248;2023-02-11T08:19:50;103251.48;;;6.17;60.90
63306;BME280;50735;52.060;1.248;2023-02-11T08:22:17;103258.36;;;5.58;62.00
63306;BME280;50735;52.060;1.248;2023-02-11T08:24:44;103261.89;;;5.71;62.51
63306;BME280;50735;52.060;1.248;2023-02-11T08:27:11;103259.81;;;5.60;62.00
63306;BME280;50735;52.060;1.248;2023-02-11T08:29:37;103265.87;;;5.54;62.41
63306;BME280;50735;52.060;1.248;2023-02-11T08:32:05;103271.27;;;5.47;62.81
63306;BME280;50735;52.060;1.248;2023-02-11T08:34:32;103274.79;;;5.88;62.09
63306;BME280;50735;52.060;1.248;2023-02-11T08:36:59;103278.11;;;5.79;62.32
63306;BME280;50735;52.060;1.248;2023-02-11T08:39:26;103274.81;;;6.02;61.98
63306;BME280;50735;52.060;1.248;2023-02-11T08:41:54;103280.76;;;6.26;61.19
63306;BME280;50735;52.060;1.248;2023-02-11T08:44:21;103281.49;;;6.31;60.55
63306;BME280;50735;52.060;1.248;2023-02-11T08:46:50;103281.91;;;6.53;60.10
63306;BME280;50735;52.060;1.248;2023-02-11T08:49:17;103282.42;;;6.61;60.03
63306;BME280;50735;52.060;1.248;2023-02-11T08:51:45;103280.06;;;6.33;60.81
63306;BME280;50735;52.060;1.248;2023-02-11T08:54:13;103276.85;;;6.16;61.16
63306;BME280;50735;52.060;1.248;2023-02-11T08:56:40;103277.90;;;6.44;60.78
63306;BME280;50735;52.060;1.248;2023-02-11T08:59:11;103287.83;;;6.17;61.14
63306;BME280;50735;52.060;1.248;2023-02-11T09:01:39;103290.33;;;6.47;60.57
63306;BME280;50735;52.060;1.248;2023-02-11T09:04:05;103288.55;;;5.80;61.56
63306;BME280;50735;52.060;1.248;2023-02-11T09:06:32;103288.18;;;5.91;61.84
63306;BME280;50735;52.060;1.248;2023-02-11T09:09:00;103283.15;;;5.79;61.71
63306;BME280;50735;52.060;1.248;2023-02-11T09:11:30;103282.67;;;5.92;61.84
63306;BME280;50735;52.060;1.248;2023-02-11T09:13:58;103282.65;;;6.09;61.27
63306;BME280;50735;52.060;1.248;2023-02-11T09:16:28;103288.67;;;6.02;61.52
63306;BME280;50735;52.060;1.248;2023-02-11T09:18:55;103289.90;;;5.99;61.63
63306;BME280;50735;52.060;1.248;2023-02-11T09:21:22;103286.77;;;5.96;61.42
63306;BME280;50735;52.060;1.248;2023-02-11T09:23:49;103287.26;;;6.37;61.34
63306;BME280;50735;52.060;1.248;2023-02-11T09:26:17;103288.40;;;6.03;61.35
63306;BME280;50735;52.060;1.248;2023-02-11T09:28:46;103293.02;;;6.31;61.12
63306;BME280;50735;52.060;1.248;2023-02-11T09:31:14;103290.96;;;6.37;61.30
63306;BME280;50735;52.060;1.248;2023-02-11T09:33:43;103295.11;;;6.51;60.84
63306;BME280;50735;52.060;1.248;2023-02-11T09:36:10;103293.53;;;6.20;61.30
63306;BME280;50735;52.060;1.248;2023-02-11T09:38:38;103292.01;;;6.32;61.01
63306;BME280;50735;52.060;1.248;2023-02-11T09:41:04;103293.07;;;6.29;61.09
63306;BME280;50735;52.060;1.248;2023-02-11T09:43:35;103296.49;;;6.50;60.77
63306;BME280;50735;52.060;1.248;2023-02-11T09:46:04;103301.43;;;6.54;60.43
63306;BME280;50735;52.060;1.248;2023-02-11T09:48:38;103306.11;;;6.67;60.22
63306;BME280;50735;52.060;1.248;2023-02-11T09:51:13;103304.57;;;6.83;59.80
63306;BME280;50735;52.060;1.248;2023-02-11T09:53:42;103313.04;;;6.85;59.67
63306;BME280;50735;52.060;1.248;2023-02-11T09:56:11;103315.18;;;6.80;59.57
63306;BME280;50735;52.060;1.248;2023-02-11T09:58:40;103318.06;;;7.15;59.83
63306;BME280;50735;52.060;1.248;2023-02-11T10:01:15;103317.63;;;6.93;60.16
63306;BME280;50735;52.060;1.248;2023-02-11T10:03:55;103319.05;;;6.69;60.20
63306;BME280;50735;52.060;1.248;2023-02-11T10:06:43;103313.39;;;6.71;60.53
63306;BME280;50735;52.060;1.248;2023-02-11T10:09:23;103314.52;;;6.99;60.35
63306;BME280;50735;52.060;1.248;2023-02-11T10:12:02;103320.75;;;7.10;59.71
63306;BME280;50735;52.060;1.248;2023-02-11T10:14:49;103326.54;;;7.26;59.35
63306;BME280;50735;52.060;1.248;2023-02-11T10:17:27;103329.28;;;6.93;59.40
63306;BME280;50735;52.060;1.248;2023-02-11T10:20:12;103325.81;;;6.90;59.42
63306;BME280;50735;52.060;1.248;2023-02-11T10:22:44;103325.43;;;7.39;58.92
63306;BME280;50735;52.060;1.248;2023-02-11T10:25:19;103327.44;;;7.73;58.73
63306;BME280;50735;52.060;1.248;2023-02-11T10:27:47;103333.80;;;7.67;58.37
63306;BME280;50735;52.060;1.248;2023-02-11T10:30:22;103329.37;;;8.04;57.90
63306;BME280;50735;52.060;1.248;2023-02-11T10:32:54;103333.12;;;8.08;57.46
63306;BME280;50735;52.060;1.248;2023-02-11T10:35:23;103332.90;;;7.62;57.57
63306;BME280;50735;52.060;1.248;2023-02-11T10:37:51;103332.58;;;7.89;57.32
63306;BME280;50735;52.060;1.248;2023-02-11T10:40:20;103333.34;;;7.92;57.10
63306;BME280;50735;52.060;1.248;2023-02-11T10:42:50;103337.47;;;7.99;57.32
63306;BME280;50735;52.060;1.248;2023-02-11T10:45:24;103343.81;;;8.06;57.35
63306;BME280;50735;52.060;1.248;2023-02-11T10:47:52;103341.98;;;8.10;57.12
63306;BME280;50735;52.060;1.248;2023-02-11T10:50:22;103344.35;;;8.30;56.48
63306;BME280;50735;52.060;1.248;2023-02-11T10:52:50;103345.27;;;8.38;56.46
63306;BME280;50735;52.060;1.248;2023-02-11T10:55:18;103346.11;;;8.10;56.33
63306;BME280;50735;52.060;1.248;2023-02-11T10:57:53;103345.59;;;8.23;56.06
63306;BME280;50735;52.060;1.248;2023-02-11T11:00:29;103349.45;;;8.36;55.98
63306;BME280;50735;52.060;1.248;2023-02-11T11:02:59;103350.72;;;8.51;55.55
63306;BME280;50735;52.060;1.248;2023-02-11T11:05:30;103346.68;;;8.29;55.75
63306;BME280;50735;52.060;1.248;2023-02-11T11:07:59;103349.34;;;8.54;55.45
63306;BME280;50735;52.060;1.248;2023-02-11T11:10:33;103352.41;;;8.67;54.83
63306;BME280;50735;52.060;1.248;2023-02-11T11:13:02;103350.59;;;8.72;55.24
63306;BME280;50735;52.060;1.248;2023-02-11T11:15:31;103347.23;;;8.53;55.62
63306;BME280;50735;52.060;1.248;2023-02-11T11:18:11;103347.59;;;8.28;55.83
63306;BME280;50735;52.060;1.248;2023-02-11T11:20:43;103343.69;;;8.36;55.56
63306;BME280;50735;52.060;1.248;2023-02-11T11:23:20;103342.57;;;8.38;55.43
63306;BME280;50735;52.060;1.248;2023-02-11T11:25:59;103344.08;;;8.39;54.87
63306;BME280;50735;52.060;1.248;2023-02-11T11:28:31;103347.62;;;8.74;54.86
63306;BME280;50735;52.060;1.248;2023-02-11T11:30:58;103347.48;;;8.63;54.38
63306;BME280;50735;52.060;1.248;2023-02-11T11:33:28;103348.39;;;9.05;54.39
63306;BME280;50735;52.060;1.248;2023-02-11T11:36:00;103343.24;;;9.24;53.83
63306;BME280;50735;52.060;1.248;2023-02-11T11:38:29;103341.95;;;9.15;53.75
63306;BME280;50735;52.060;1.248;2023-02-11T11:41:31;103342.69;;;9.25;54.06
63306;BME280;50735;52.060;1.248;2023-02-11T11:44:02;103349.96;;;8.88;54.24
63306;BME280;50735;52.060;1.248;2023-02-11T11:46:32;103350.71;;;8.52;54.39
63306;BME280;50735;52.060;1.248;2023-02-11T11:49:11;103355.18;;;8.91;54.08
63306;BME280;50735;52.060;1.248;2023-02-11T11:51:41;103350.50;;;8.96;53.66
63306;BME280;50735;52.060;1.248;2023-02-11T11:54:12;103341.09;;;8.64;53.95
63306;BME280;50735;52.060;1.248;2023-02-11T11:56:49;103343.67;;;8.76;53.99
63306;BME280;50735;52.060;1.248;2023-02-11T11:59:16;103351.88;;;8.87;54.19
63306;BME280;50735;52.060;1.248;2023-02-11T12:01:55;103351.48;;;8.61;54.24
63306;BME280;50735;52.060;1.248;2023-02-11T12:04:41;103346.73;;;8.95;54.15
63306;BME280;50735;52.060;1.248;2023-02-11T12:07:21;103341.39;;;8.71;54.01
63306;BME280;50735;52.060;1.248;2023-02-11T12:12:50;103339.91;;;8.70;54.79
63306;BME280;50735;52.060;1.248;2023-02-11T12:15:30;103346.58;;;8.87;54.96
63306;BME280;50735;52.060;1.248;2023-02-11T12:18:06;103345.21;;;8.87;54.53
63306;BME280;50735;52.060;1.248;2023-02-11T12:20:53;103344.67;;;9.37;54.20
63306;BME280;50735;52.060;1.248;2023-02-11T12:23:33;103341.39;;;8.89;54.02
63306;BME280;50735;52.060;1.248;2023-02-11T12:26:12;103342.62;;;8.77;54.58
63306;BME280;50735;52.060;1.248;2023-02-11T12:28:49;103343.01;;;8.94;54.37
63306;BME280;50735;52.060;1.248;2023-02-11T12:31:27;103340.86;;;8.73;54.25
63306;BME280;50735;52.060;1.248;2023-02-11T12:36:35;103336.62;;;9.26;53.83
63306;BME280;50735;52.060;1.248;2023-02-11T12:39:16;103341.75;;;8.93;53.98
63306;BME280;50735;52.060;1.248;2023-02-11T12:42:03;103342.36;;;8.93;53.86
63306;BME280;50735;52.060;1.248;2023-02-11T12:44:49;103337.48;;;8.99;53.77
63306;BME280;50735;52.060;1.248;2023-02-11T12:47:25;103341.83;;;8.79;53.95
63306;BME280;50735;52.060;1.248;2023-02-11T12:50:06;103348.19;;;8.96;54.01
63306;BME280;50735;52.060;1.248;2023-02-11T12:52:49;103344.67;;;9.52;53.11
63306;BME280;50735;52.060;1.248;2023-02-11T12:55:23;103344.63;;;9.23;53.06
63306;BME280;50735;52.060;1.248;2023-02-11T12:57:53;103345.76;;;9.38;53.04
63306;BME280;50735;52.060;1.248;2023-02-11T13:00:24;103349.55;;;9.52;52.21
63306;BME280;50735;52.060;1.248;2023-02-11T13:02:59;103343.19;;;9.47;50.92
63306;BME280;50735;52.060;1.248;2023-02-11T13:05:37;103337.45;;;9.35;51.01
63306;BME280;50735;52.060;1.248;2023-02-11T13:08:12;103337.89;;;9.08;50.10
63306;BME280;50735;52.060;1.248;2023-02-11T13:10:42;103340.87;;;9.40;53.68
63306;BME280;50735;52.060;1.248;2023-02-11T13:13:15;103343.79;;;9.99;54.35
63306;BME280;50735;52.060;1.248;2023-02-11T13:15:50;103340.13;;;10.17;50.14
63306;BME280;50735;52.060;1.248;2023-02-11T13:18:50;103335.01;;;9.90;49.46
63306;BME280;50735;52.060;1.248;2023-02-11T13:21:30;103333.59;;;10.09;48.06